West Point, Georgia
Current Conditions -  °F | °C
As of 6:55 PM on Saturday 25 Oct 2014 (Local Time) from KLGC Reporting Station
Clear Clear  
Wind Chill: 70°   Ceiling: Unl
Heat Index: 70°   Visibility: 10mi
Dew Point: 56°   Wind: 0mph
Humidity: 60%   Direction: NA
Pressure: 30.02"   Gusts: NA
Location:  32.88°N, 85.18°W
Report Text: KLGC 252255Z AUTO 00000KT 10SM CLR 21/13 A3002 RMK AO2 T02120131
Loading
Personal Weather Stations






























Interactive Weather Map
Tropical Storm Tracking
New forecast layout! Learn more

10-Day Weather Forecast

Advertisements
Track Severe Weather on mobile